Time;durP1;ratioP1;P1;durP2;ratioP2;P2;SDS_P1;SDS_P2;PMS_P1;PMS_P2;Temp;Humidity;BMP_temperature;BMP_pressure;BME280_temperature;BME280_humidity;BME280_pressure;Samples;Min_cycle;Max_cycle;Signal;HPM_P1;HPM_P2
2024/04/23 00:01:44;;;;;;;1.27;0.77;;;;;;;2.15;100.00;101598.09;6550192;22;20572;-79
2024/04/23 00:04:14;;;;;;;5.80;1.20;;;;;;;2.14;100.00;101606.22;6551638;22;20251;-81
2024/04/23 00:06:57;;;;;;;2.28;1.33;;;;;;;2.12;100.00;101601.03;6549034;22;20237;-80
2024/04/23 00:09:41;;;;;;;2.78;1.23;;;;;;;2.36;100.00;101599.91;6549996;22;20228;-80
2024/04/23 00:12:22;;;;;;;1.95;1.10;;;;;;;2.23;100.00;101601.94;6549423;22;20221;-81
2024/04/23 00:15:00;;;;;;;2.88;1.48;;;;;;;2.25;100.00;101605.31;6549434;22;20224;-80
2024/04/23 00:17:44;;;;;;;3.80;2.40;;;;;;;2.21;100.00;101598.53;6507721;22;20237;-81
2024/04/23 00:20:19;;;;;;;2.20;1.70;;;;;;;2.10;100.00;101594.09;6547438;22;20277;-79
2024/04/23 00:22:51;;;;;;;1.20;0.90;;;;;;;1.91;100.00;101586.81;6549034;22;20233;-79
2024/04/23 00:25:24;;;;;;;0.85;0.70;;;;;;;1.89;100.00;101583.41;6501831;22;20596;-80
2024/04/23 00:28:01;;;;;;;5.13;1.63;;;;;;;2.14;100.00;101576.84;6505228;22;20253;-80
2024/04/23 00:30:39;;;;;;;1.92;1.73;;;;;;;1.90;100.00;101579.78;6550092;22;20217;-80
2024/04/23 00:33:16;;;;;;;1.85;1.52;;;;;;;1.78;100.00;101572.81;6549889;22;20271;-80
2024/04/23 00:35:48;;;;;;;1.70;0.93;;;;;;;1.77;100.00;101573.78;6548086;22;20213;-80
2024/04/23 00:38:20;;;;;;;3.95;1.30;;;;;;;1.64;100.00;101584.66;6544233;22;20608;-80
2024/04/23 00:40:52;;;;;;;0.80;0.60;;;;;;;1.56;100.00;101564.91;6546738;22;20212;-81
2024/04/23 00:43:26;;;;;;;2.00;1.00;;;;;;;1.74;100.00;101563.38;6501606;22;20265;-81
2024/04/23 00:46:04;;;;;;;1.70;1.05;;;;;;;1.73;100.00;101562.53;6550349;22;20202;-80
2024/04/23 00:48:36;;;;;;;2.75;1.48;;;;;;;1.70;100.00;101572.59;6541856;22;20230;-80
2024/04/23 00:51:13;;;;;;;1.42;0.82;;;;;;;1.69;100.00;101568.25;6550457;22;20221;-80
2024/04/23 00:53:48;;;;;;;0.90;0.70;;;;;;;2.18;100.00;101567.59;6505595;22;20225;-79
2024/04/23 00:56:19;;;;;;;1.63;0.90;;;;;;;2.02;100.00;101570.75;6506331;22;20288;-80
2024/04/23 00:58:51;;;;;;;1.13;1.02;;;;;;;1.76;100.00;101566.75;6545063;22;20703;-80
2024/04/23 01:01:27;;;;;;;1.55;0.70;;;;;;;1.70;100.00;101564.59;6493994;22;20593;-81
2024/04/23 01:04:01;;;;;;;1.70;1.30;;;;;;;1.65;100.00;101566.78;6489646;22;20222;-80
2024/04/23 01:06:40;;;;;;;0.80;0.60;;;;;;;1.58;100.00;101563.81;6489097;22;20264;-80
2024/04/23 01:09:19;;;;;;;1.00;0.90;;;;;;;1.49;100.00;101567.25;6494604;22;20218;-80
2024/04/23 01:11:52;;;;;;;1.00;0.90;;;;;;;1.42;100.00;101562.53;6450342;22;20275;-79
2024/04/23 01:14:26;;;;;;;1.70;0.85;;;;;;;1.39;100.00;101554.78;6451767;22;20230;-81
2024/04/23 03:49:11;;;;;;;0.80;0.50;;;;;;;0.80;100.00;101507.22;6199139;23;20259;-80
2024/04/23 05:53:37;;;;;;;1.95;1.48;;;;;;;4.34;97.91;101516.59;5633715;25;20809;-79
2024/04/23 05:56:30;;;;;;;1.30;1.17;;;;;;;4.33;98.52;101522.94;5602299;25;20298;-81
2024/04/23 05:58:59;;;;;;;1.75;1.50;;;;;;;4.23;97.65;101520.28;5553001;25;20257;-80
2024/04/23 06:01:31;;;;;;;1.60;1.50;;;;;;;4.28;97.16;101528.72;5550582;25;20214;-81
2024/04/23 06:04:00;;;;;;;4.35;1.35;;;;;;;4.33;95.75;101536.34;5549988;25;20277;-80
2024/04/23 06:06:31;;;;;;;1.73;1.33;;;;;;;4.24;93.99;101534.53;5510622;25;20239;-80
2024/04/23 06:09:01;;;;;;;1.63;1.52;;;;;;;4.33;93.23;101525.63;5510192;26;20231;-80
2024/04/23 06:11:35;;;;;;;2.15;1.23;;;;;;;4.33;92.58;101526.47;5511914;25;20335;-80
2024/04/23 06:14:07;;;;;;;5.50;1.20;;;;;;;4.59;93.34;101534.69;5512220;25;20219;-80
2024/04/23 06:16:44;;;;;;;3.17;1.35;;;;;;;4.84;93.67;101535.84;5513241;25;20258;-79
2024/04/23 06:19:31;;;;;;;2.78;1.88;;;;;;;4.85;88.22;101536.66;5524146;25;20256;-79
2024/04/23 06:22:03;;;;;;;2.95;2.75;;;;;;;4.63;87.63;101535.22;5553127;25;20261;-80
2024/04/23 06:24:33;;;;;;;2.38;1.10;;;;;;;4.11;84.95;101531.34;5551027;25;20295;-80
2024/04/23 06:27:10;;;;;;;1.40;1.30;;;;;;;3.88;86.38;101531.66;5563004;25;20295;-79
2024/04/23 06:29:39;;;;;;;2.88;1.60;;;;;;;3.86;87.36;101539.00;5561858;25;20282;-79
2024/04/23 06:32:11;;;;;;;1.30;0.90;;;;;;;3.72;87.87;101530.56;5549915;25;20265;-80
2024/04/23 06:34:40;;;;;;;3.30;3.03;;;;;;;3.74;87.41;101528.56;5549086;25;20278;-80
2024/04/23 06:37:12;;;;;;;1.25;1.15;;;;;;;3.81;87.21;101543.94;5548549;25;20234;-79
2024/04/23 06:39:42;;;;;;;1.10;0.90;;;;;;;3.68;87.33;101535.31;5549986;25;20295;-79
2024/04/23 06:42:19;;;;;;;0.90;0.80;;;;;;;3.97;87.43;101534.47;5547994;25;20227;-79
2024/04/23 06:44:49;;;;;;;4.20;3.90;;;;;;;4.05;86.11;101532.75;5546402;25;20249;-79
2024/04/23 06:47:21;;;;;;;1.73;1.58;;;;;;;4.16;85.66;101537.09;5551374;25;20230;-80
2024/04/23 06:49:50;;;;;;;5.55;5.05;;;;;;;4.40;83.95;101534.78;5528018;25;20318;-79
2024/04/23 06:52:22;;;;;;;3.30;2.03;;;;;;;4.61;83.04;101538.06;5541034;25;20296;-79
2024/04/23 06:54:51;;;;;;;1.85;1.75;;;;;;;4.82;83.13;101527.94;5536128;26;20230;-79
2024/04/23 06:57:26;;;;;;;2.85;1.48;;;;;;;4.96;80.48;101528.41;5533007;25;20247;-80
2024/04/23 06:59:57;;;;;;;4.95;2.55;;;;;;;5.16;81.13;101527.31;5516787;26;20614;-79
2024/04/23 07:02:28;;;;;;;8.13;2.42;;;;;;;5.36;80.76;101534.22;5501892;26;20224;-79
2024/04/23 07:04:58;;;;;;;1.55;1.30;;;;;;;5.41;80.50;101528.41;5501771;26;20447;-80
2024/04/23 07:07:29;;;;;;;7.88;4.20;;;;;;;5.19;78.52;101524.31;5531688;25;20283;-80
2024/04/23 07:09:58;;;;;;;3.47;2.58;;;;;;;5.13;77.35;101525.75;5529421;26;20227;-79
2024/04/23 07:12:32;;;;;;;3.67;2.65;;;;;;;5.33;77.33;101522.94;5532221;25;20223;-80
2024/04/23 07:15:04;;;;;;;1.52;1.02;;;;;;;5.39;76.02;101519.63;5509550;26;20280;-80
2024/04/23 07:21:24;;;;;;;10.07;3.60;;;;;;;5.46;73.65;101523.41;5521427;26;20227;-80
2024/04/23 07:23:53;;;;;;;1.20;0.90;;;;;;;5.55;72.12;101526.00;5532959;25;20258;-80
2024/04/23 07:26:25;;;;;;;1.50;1.40;;;;;;;5.60;70.63;101523.72;5532068;25;20278;-80
2024/04/23 07:28:57;;;;;;;0.90;0.80;;;;;;;5.52;65.34;101529.00;5532538;26;20269;-80
2024/04/23 07:31:28;;;;;;;1.33;0.80;;;;;;;5.29;66.15;101514.34;5531953;26;20782;-80
2024/04/23 07:33:58;;;;;;;1.25;0.88;;;;;;;5.21;67.99;101512.44;5532321;26;20307;-80
2024/04/23 07:36:30;;;;;;;2.13;2.03;;;;;;;5.15;67.60;101507.69;5534587;25;20315;-80
2024/04/23 07:38:58;;;;;;;1.33;0.70;;;;;;;5.20;67.26;101509.91;5534087;25;20270;-81
2024/04/23 07:41:32;;;;;;;1.73;1.48;;;;;;;5.20;64.91;101501.84;5532398;26;20274;-78
2024/04/23 07:44:06;;;;;;;3.65;1.67;;;;;;;5.49;66.31;101512.34;5548175;26;20288;-79
2024/04/23 07:46:37;;;;;;;1.90;1.55;;;;;;;5.76;65.04;101506.06;5541305;25;20262;-79
2024/04/23 07:49:06;;;;;;;2.72;2.20;;;;;;;5.81;62.86;101503.75;5537276;25;20304;-79
2024/04/23 07:51:38;;;;;;;2.17;1.15;;;;;;;5.55;60.85;101504.53;5533429;25;20575;-79
2024/04/23 07:54:07;;;;;;;1.50;1.00;;;;;;;5.31;61.56;101496.25;5534464;26;20219;-79
2024/04/23 07:56:38;;;;;;;1.20;1.02;;;;;;;5.12;62.90;101496.41;5533390;25;20604;-80
2024/04/23 07:59:11;;;;;;;2.33;2.17;;;;;;;5.38;64.23;101485.75;5535304;25;20234;-80
2024/04/23 08:01:45;;;;;;;2.53;1.88;;;;;;;5.67;62.87;101484.47;5538484;26;20223;-79
2024/04/23 08:04:14;;;;;;;2.70;1.98;;;;;;;5.96;58.76;101488.75;5539577;26;20228;-80
2024/04/23 08:06:47;;;;;;;2.47;1.45;;;;;;;6.00;60.01;101485.59;5538924;25;21628;-80
2024/04/23 08:09:16;;;;;;;1.55;1.10;;;;;;;6.40;59.77;101482.28;5537820;26;20223;-79
2024/04/23 08:11:47;;;;;;;1.63;1.00;;;;;;;6.46;60.05;101476.28;5536461;25;20234;-79
2024/04/23 08:14:19;;;;;;;1.25;0.95;;;;;;;6.73;58.59;101477.88;5540077;26;20255;-79
2024/04/23 08:16:50;;;;;;;1.85;1.23;;;;;;;6.66;56.33;101478.69;5543906;25;20234;-80
2024/04/23 08:19:46;;;;;;;1.60;1.45;;;;;;;6.76;56.74;101477.56;5543104;26;20235;-79
2024/04/23 08:22:19;;;;;;;1.85;1.33;;;;;;;6.67;54.75;101466.94;5544164;26;20223;-80
2024/04/23 08:24:51;;;;;;;1.65;1.05;;;;;;;6.78;55.35;101461.25;5548021;25;20219;-80
2024/04/23 08:27:23;;;;;;;1.17;0.63;;;;;;;6.70;55.84;101461.22;5543672;25;20251;-79
2024/04/23 08:29:54;;;;;;;5.03;1.35;;;;;;;6.99;54.69;101461.66;5507850;26;20592;-80
2024/04/23 08:32:26;;;;;;;2.55;1.83;;;;;;;6.97;53.92;101461.00;5545301;26;20275;-79
2024/04/23 08:34:58;;;;;;;3.92;1.35;;;;;;;6.82;54.84;101450.03;5542682;25;20266;-80
2024/04/23 08:37:29;;;;;;;0.90;0.80;;;;;;;6.93;55.08;101454.22;5537895;25;20235;-80
2024/04/23 08:39:58;;;;;;;1.73;1.33;;;;;;;7.14;52.32;101448.38;5501964;26;20263;-80
2024/04/23 08:42:35;;;;;;;1.00;0.70;;;;;;;7.16;52.53;101441.84;5530594;26;20239;-81
2024/04/23 08:45:08;;;;;;;1.75;1.20;;;;;;;7.22;53.44;101437.63;5536748;25;20362;-80
2024/04/23 08:47:41;;;;;;;1.40;1.00;;;;;;;7.23;53.11;101429.38;5538810;26;20695;-80
2024/04/23 08:50:10;;;;;;;1.55;1.05;;;;;;;7.42;53.81;101439.81;5542241;26;20227;-81
2024/04/23 08:52:41;;;;;;;1.77;1.45;;;;;;;7.53;51.32;101437.81;5542355;25;20235;-80
2024/04/23 08:55:10;;;;;;;1.00;0.80;;;;;;;7.26;50.15;101431.72;5504020;26;20328;-80
2024/04/23 08:57:43;;;;;;;3.92;1.25;;;;;;;7.40;50.15;101430.25;5508218;26;20224;-81
2024/04/23 09:00:15;;;;;;;3.50;1.42;;;;;;;7.37;50.77;101426.03;5507224;26;20308;-80
2024/04/23 09:07:28;;;;;;;2.97;1.83;;;;;;;7.84;50.47;101406.44;5508574;25;20261;-80
2024/04/23 09:10:01;;;;;;;1.70;1.60;;;;;;;8.17;48.90;101409.88;5532501;25;20273;-81
2024/04/23 09:12:35;;;;;;;1.90;1.75;;;;;;;8.16;46.85;101406.34;5533021;26;20265;-82
2024/04/23 09:15:05;;;;;;;2.03;1.40;;;;;;;8.37;45.40;101404.97;5533411;26;20236;-80
2024/04/23 09:18:47;;;;;;;1.55;1.20;;;;;;;8.24;45.05;101398.22;5522959;26;20238;-80
2024/04/23 09:21:50;;;;;;;2.88;2.67;;;;;;;8.15;43.51;101391.19;5526680;26;20345;-81
2024/04/23 09:24:42;;;;;;;1.80;1.55;;;;;;;8.58;44.67;101399.78;5502015;26;20228;-82
2024/04/23 09:27:35;;;;;;;4.13;1.33;;;;;;;8.84;43.75;101394.91;5520738;25;20266;-81
2024/04/23 09:37:23;;;;;;;0.98;0.88;;;;;;;8.56;42.61;101375.69;5530243;25;20298;-81
2024/04/23 09:40:00;;;;;;;1.80;1.58;;;;;;;8.51;42.33;101379.94;5531193;26;20659;-82
2024/04/23 09:42:32;;;;;;;1.10;0.73;;;;;;;8.62;42.23;101379.50;5531184;26;20223;-82
2024/04/23 09:45:00;;;;;;;1.67;1.45;;;;;;;8.82;41.43;101372.63;5529727;26;20266;-82
2024/04/23 09:47:32;;;;;;;3.13;1.70;;;;;;;9.13;42.24;101370.72;5530217;25;20580;-81
2024/04/23 09:50:01;;;;;;;1.48;0.60;;;;;;;9.29;41.14;101371.63;5533199;25;20231;-81
2024/04/23 09:52:35;;;;;;;1.52;1.27;;;;;;;9.40;41.44;101365.75;5530705;25;20239;-80
2024/04/23 09:55:05;;;;;;;2.88;1.35;;;;;;;9.57;41.61;101354.63;5532162;25;20912;-81
2024/04/23 09:57:36;;;;;;;1.27;1.00;;;;;;;9.59;41.48;101359.84;5529308;26;20826;-81
2024/04/23 10:00:07;;;;;;;1.45;0.90;;;;;;;9.34;40.85;101356.56;5530775;25;20625;-80
2024/04/23 10:02:40;;;;;;;2.65;1.90;;;;;;;9.60;41.51;101348.00;5523982;25;20304;-80
2024/04/23 10:05:14;;;;;;;1.77;1.47;;;;;;;9.68;41.51;101349.81;5523083;26;20784;-80
2024/04/23 10:07:55;;;;;;;0.97;0.70;;;;;;;9.73;42.14;101347.38;5527295;25;20508;-80
2024/04/23 10:10:33;;;;;;;2.17;0.77;;;;;;;9.60;41.82;101354.25;5528543;26;20468;-80
2024/04/23 10:13:08;;;;;;;1.00;0.70;;;;;;;9.85;41.30;101357.53;5523196;26;20286;-80
2024/04/23 10:15:45;;;;;;;1.50;1.37;;;;;;;9.72;40.41;101349.25;5518514;26;20266;-80
2024/04/23 10:18:26;;;;;;;1.75;1.38;;;;;;;9.82;40.39;101348.97;5502381;25;20978;-80
2024/04/23 10:20:57;;;;;;;1.90;1.50;;;;;;;9.43;38.42;101335.69;5527953;25;20239;-80
2024/04/23 10:23:32;;;;;;;1.13;0.80;;;;;;;9.60;38.56;101323.69;5534407;25;20265;-80
2024/04/23 10:26:01;;;;;;;1.90;1.00;;;;;;;10.08;39.20;101333.09;5536868;26;20320;-80
2024/04/23 10:28:32;;;;;;;1.42;0.98;;;;;;;10.68;38.57;101319.28;5548649;25;20451;-81
2024/04/23 10:31:01;;;;;;;1.73;0.93;;;;;;;11.02;36.08;101317.72;5551399;25;20275;-81
2024/04/23 10:33:32;;;;;;;1.73;1.60;;;;;;;10.99;35.48;101318.13;5530775;25;20461;-80
2024/04/23 10:36:03;;;;;;;3.00;1.30;;;;;;;10.80;37.18;101309.59;5536262;26;20535;-80
2024/04/23 10:38:37;;;;;;;2.80;1.70;;;;;;;10.10;36.73;101313.97;5522205;26;20755;-80
2024/04/23 10:41:07;;;;;;;3.83;1.13;;;;;;;10.17;37.79;101307.66;5527414;26;20513;-80
2024/04/23 10:43:38;;;;;;;1.83;1.67;;;;;;;10.61;37.42;101303.97;5512542;26;20525;-79
2024/04/23 10:46:07;;;;;;;1.77;1.10;;;;;;;10.52;38.16;101300.56;5532894;26;20441;-80
2024/04/23 10:48:42;;;;;;;2.27;1.40;;;;;;;10.96;37.81;101302.25;5535553;26;20440;-81
2024/04/23 10:51:11;;;;;;;1.50;1.20;;;;;;;10.95;37.56;101297.84;5507876;26;20536;-79
2024/04/23 10:53:46;;;;;;;1.40;1.10;;;;;;;10.76;37.78;101286.66;5539822;26;20489;-81
2024/04/23 10:56:22;;;;;;;1.00;0.90;;;;;;;11.31;34.83;101288.59;5500407;26;20469;-81
2024/04/23 10:59:04;;;;;;;2.13;2.00;;;;;;;11.94;35.12;101285.84;5521505;26;20537;-81
2024/04/23 11:01:32;;;;;;;1.70;0.70;;;;;;;11.17;34.40;101283.25;5533507;26;20547;-81
2024/04/23 11:04:05;;;;;;;1.40;1.10;;;;;;;11.25;35.32;101283.94;5531484;25;20464;-80
2024/04/23 11:06:36;;;;;;;3.13;1.77;;;;;;;11.28;35.72;101278.13;5518410;25;20475;-81
2024/04/23 11:09:24;;;;;;;1.60;1.20;;;;;;;11.36;35.36;101273.59;5524402;26;20492;-81
2024/04/23 11:11:56;;;;;;;1.43;0.87;;;;;;;11.34;36.16;101271.06;5529527;26;20528;-81
2024/04/23 11:14:39;;;;;;;2.03;1.50;;;;;;;11.37;35.38;101262.56;5533850;26;20516;-80
2024/04/23 11:17:08;;;;;;;2.10;1.43;;;;;;;11.40;35.87;101262.16;5503497;26;20471;-81
2024/04/23 11:19:40;;;;;;;3.27;1.93;;;;;;;11.46;35.47;101274.09;5533185;25;20459;-81
2024/04/23 11:22:10;;;;;;;1.50;1.00;;;;;;;11.33;36.10;101266.69;5531114;25;20584;-79
2024/04/23 11:24:51;;;;;;;1.63;0.90;;;;;;;10.41;36.17;101255.06;5493920;26;20574;-80
2024/04/23 11:27:20;;;;;;;1.23;0.90;;;;;;;10.23;36.48;101252.81;5504958;26;20584;-80
2024/04/23 11:29:52;;;;;;;1.30;0.97;;;;;;;10.27;36.24;101247.84;5511595;26;20489;-80
2024/04/23 11:32:21;;;;;;;1.35;1.25;;;;;;;10.71;36.07;101248.50;5495934;26;20783;-81
2024/04/23 11:34:53;;;;;;;1.40;1.20;;;;;;;11.57;35.14;101232.88;5516290;26;20307;-81
2024/04/23 11:37:26;;;;;;;3.23;1.00;;;;;;;11.88;33.95;101235.97;5533811;25;20541;-80
2024/04/23 11:40:04;;;;;;;1.20;0.97;;;;;;;12.09;33.00;101229.59;5535035;25;20515;-81
2024/04/23 11:42:33;;;;;;;1.50;1.10;;;;;;;12.37;32.54;101237.59;5511958;26;20531;-80
2024/04/23 11:45:05;;;;;;;2.73;1.70;;;;;;;11.51;32.82;101239.09;5534435;26;20468;-80
2024/04/23 11:47:33;;;;;;;1.10;0.70;;;;;;;10.98;33.65;101238.75;5533730;25;20460;-80
2024/04/23 11:50:06;;;;;;;2.60;1.50;;;;;;;11.30;34.48;101232.72;5532840;26;20500;-79
2024/04/23 11:52:35;;;;;;;1.80;0.83;;;;;;;11.43;34.06;101234.66;5532226;25;20539;-80
2024/04/23 11:55:09;;;;;;;1.97;1.23;;;;;;;11.28;34.90;101220.38;5534317;26;20452;-80
2024/04/23 11:57:38;;;;;;;2.00;1.40;;;;;;;11.62;34.81;101217.66;5537223;25;20483;-80
2024/04/23 12:00:10;;;;;;;1.47;1.10;;;;;;;11.32;33.98;101216.28;5534360;26;20531;-81
2024/04/23 12:02:38;;;;;;;1.27;1.00;;;;;;;11.67;33.26;101215.19;5531637;26;20568;-81
2024/04/23 12:05:10;;;;;;;1.10;0.83;;;;;;;11.08;34.26;101214.03;5532099;26;20528;-81
2024/04/23 12:07:43;;;;;;;1.33;1.07;;;;;;;10.42;36.34;101213.44;5533883;25;20460;-82
2024/04/23 12:10:33;;;;;;;0.90;0.80;;;;;;;10.41;37.12;101211.78;5525157;26;20469;-80
2024/04/23 12:13:02;;;;;;;2.07;1.10;;;;;;;10.40;37.29;101204.72;5504662;26;20417;-81
2024/04/23 12:15:34;;;;;;;2.47;1.27;;;;;;;10.26;36.45;101203.72;5502425;26;20502;-81
2024/04/23 12:18:02;;;;;;;1.83;1.17;;;;;;;10.54;35.61;101198.38;5495746;26;20487;-80
2024/04/23 12:20:39;;;;;;;1.10;0.93;;;;;;;10.63;35.84;101193.66;5522573;26;20530;-81
2024/04/23 12:23:15;;;;;;;3.93;1.80;;;;;;;10.90;36.12;101190.13;5532614;26;20448;-81
2024/04/23 12:25:57;;;;;;;1.30;1.20;;;;;;;11.23;36.65;101188.47;5532703;26;20448;-81
2024/04/23 12:28:26;;;;;;;1.97;1.10;;;;;;;11.37;36.17;101173.16;5501939;26;20507;-80
2024/04/23 12:31:00;;;;;;;1.17;0.90;;;;;;;11.92;34.67;101172.16;5464714;26;20588;-81
2024/04/23 12:33:36;;;;;;;1.53;1.00;;;;;;;11.65;34.12;101183.91;5494543;26;20533;-80
2024/04/23 12:36:11;;;;;;;1.60;1.40;;;;;;;10.91;35.80;101175.56;5508877;26;20500;-82
2024/04/23 12:38:42;;;;;;;2.83;1.90;;;;;;;10.50;36.60;101167.34;5490151;26;20476;-80
2024/04/23 12:41:18;;;;;;;1.57;0.80;;;;;;;10.58;36.12;101163.66;5498996;26;20421;-80
2024/04/23 12:43:49;;;;;;;1.50;1.40;;;;;;;10.49;36.25;101149.44;5536326;26;20459;-81
2024/04/23 12:46:19;;;;;;;0.90;0.70;;;;;;;10.66;36.27;101150.81;5538872;26;20950;-81
2024/04/23 12:48:50;;;;;;;2.47;1.97;;;;;;;10.69;36.66;101150.44;5503462;26;20492;-81
2024/04/23 12:51:18;;;;;;;1.10;0.90;;;;;;;10.99;37.40;101148.31;5529701;25;21056;-81
2024/04/23 12:53:49;;;;;;;2.17;1.30;;;;;;;11.39;36.63;101152.09;5529817;26;20567;-81
2024/04/23 12:56:20;;;;;;;1.73;0.97;;;;;;;10.82;36.15;101155.09;5531265;26;20593;-80
2024/04/23 12:58:54;;;;;;;1.13;0.70;;;;;;;10.95;37.58;101154.34;5532062;26;20460;-81
2024/04/23 13:01:48;;;;;;;1.63;1.07;;;;;;;10.79;36.47;101155.50;5532750;25;20443;-81
2024/04/23 13:04:20;;;;;;;1.40;1.10;;;;;;;10.78;36.67;101148.41;5493378;26;20498;-79
2024/04/23 13:06:49;;;;;;;3.83;1.60;;;;;;;10.91;36.64;101148.50;5504906;26;20525;-80
2024/04/23 13:09:20;;;;;;;2.10;1.47;;;;;;;11.12;36.60;101139.47;5532625;26;20448;-80
2024/04/23 13:11:51;;;;;;;1.47;1.07;;;;;;;11.36;36.57;101143.53;5531837;26;20455;-81
2024/04/23 13:14:24;;;;;;;2.47;1.20;;;;;;;11.56;36.46;101137.19;5520651;26;20513;-81
2024/04/23 13:16:53;;;;;;;1.37;0.97;;;;;;;11.44;35.50;101127.94;5526820;25;20511;-81
2024/04/23 13:19:25;;;;;;;1.33;0.90;;;;;;;11.02;36.22;101120.88;5530751;26;20584;-82
2024/04/23 13:21:53;;;;;;;1.43;0.90;;;;;;;11.00;34.60;101119.38;5530166;26;20413;-81
2024/04/23 13:24:24;;;;;;;1.27;1.17;;;;;;;11.17;35.03;101115.31;5528955;26;20563;-80
2024/04/23 13:26:55;;;;;;;2.47;1.03;;;;;;;10.42;36.69;101110.66;5531319;25;20512;-80
2024/04/23 13:29:27;;;;;;;1.67;1.57;;;;;;;10.67;38.08;101113.75;5532245;25;20455;-80
2024/04/23 13:31:55;;;;;;;1.23;1.00;;;;;;;10.96;38.15;101107.28;5530287;26;20444;-81
2024/04/23 13:34:27;;;;;;;3.20;1.10;;;;;;;10.79;37.17;101102.19;5522473;26;20467;-80
2024/04/23 13:36:56;;;;;;;2.87;1.30;;;;;;;10.56;36.95;101101.59;5538905;26;20555;-81
2024/04/23 13:39:26;;;;;;;1.10;0.73;;;;;;;9.98;37.35;101103.56;5539930;26;20452;-80
2024/04/23 13:41:57;;;;;;;1.30;0.83;;;;;;;10.17;38.29;101091.28;5538350;25;20463;-80
2024/04/23 13:44:29;;;;;;;8.63;1.93;;;;;;;9.89;38.30;101093.91;5540516;26;20897;-81
2024/04/23 13:46:58;;;;;;;1.00;0.80;;;;;;;9.77;38.68;101095.47;5526369;25;20516;-81
2024/04/23 13:49:29;;;;;;;4.10;1.70;;;;;;;9.82;38.81;101097.59;5538521;25;20235;-79
2024/04/23 13:51:58;;;;;;;1.30;0.90;;;;;;;9.39;39.28;101080.50;5535439;25;20472;-80
2024/04/23 13:54:29;;;;;;;1.95;1.00;;;;;;;9.55;39.43;101086.50;5532263;26;20448;-80
2024/04/23 13:57:01;;;;;;;1.10;0.70;;;;;;;9.79;39.16;101085.28;5530540;25;20239;-80
2024/04/23 13:59:32;;;;;;;1.90;1.00;;;;;;;9.83;38.92;101083.03;5529165;25;20343;-80
2024/04/23 14:02:03;;;;;;;1.97;0.77;;;;;;;10.29;37.96;101080.78;5529977;26;20994;-82
2024/04/23 14:04:36;;;;;;;1.73;1.47;;;;;;;10.14;38.51;101078.13;5541202;26;20455;-80
2024/04/23 14:07:05;;;;;;;2.20;2.10;;;;;;;9.81;39.21;101072.44;5540640;25;21094;-80
2024/04/23 14:09:36;;;;;;;3.10;0.90;;;;;;;10.12;38.95;101073.97;5526042;26;20455;-81
2024/04/23 14:12:08;;;;;;;1.70;1.00;;;;;;;10.65;39.12;101067.94;5531900;26;20271;-80
2024/04/23 14:14:41;;;;;;;1.50;0.97;;;;;;;11.02;37.06;101069.41;5531424;26;20508;-80
2024/04/23 14:17:11;;;;;;;2.40;1.70;;;;;;;11.16;36.52;101065.72;5501184;26;20565;-79
2024/04/23 14:19:42;;;;;;;1.43;1.23;;;;;;;11.05;36.82;101073.56;5538973;26;20467;-80
2024/04/23 14:22:13;;;;;;;2.10;0.90;;;;;;;10.84;37.46;101061.78;5505816;26;20457;-81
2024/04/23 14:24:45;;;;;;;1.47;1.17;;;;;;;10.83;37.87;101049.31;5527748;25;20468;-81
2024/04/23 14:27:15;;;;;;;2.43;0.80;;;;;;;11.01;37.80;101050.66;5534739;25;20558;-81
2024/04/23 14:29:46;;;;;;;1.10;1.00;;;;;;;10.90;38.27;101047.47;5507582;26;21140;-82
2024/04/23 14:32:21;;;;;;;1.00;0.90;;;;;;;10.77;37.97;101044.69;5514627;26;20448;-81
2024/04/23 14:34:51;;;;;;;1.70;0.73;;;;;;;10.68;38.65;101040.50;5505399;26;20453;-80
2024/04/23 14:37:22;;;;;;;1.30;1.20;;;;;;;10.77;38.67;101042.00;5533062;26;20459;-81
2024/04/23 14:39:50;;;;;;;1.37;1.10;;;;;;;10.73;38.86;101043.44;5549163;25;20530;-81
2024/04/23 14:42:24;;;;;;;2.83;2.00;;;;;;;10.95;37.96;101029.78;5514034;26;20453;-80
2024/04/23 14:44:52;;;;;;;2.20;1.70;;;;;;;11.28;38.33;101025.31;5497038;26;20558;-80
2024/04/23 14:47:26;;;;;;;6.73;3.27;;;;;;;11.46;37.41;101028.31;5519117;26;20531;-81
2024/04/23 14:49:54;;;;;;;1.47;1.27;;;;;;;11.69;37.96;101017.94;5530616;26;20499;-81
2024/04/23 14:52:26;;;;;;;3.57;2.77;;;;;;;11.57;37.42;101022.28;5510016;25;20473;-80
2024/04/23 14:54:55;;;;;;;2.60;1.07;;;;;;;11.64;37.16;101014.16;5510822;26;21049;-80
2024/04/23 14:57:28;;;;;;;1.60;1.20;;;;;;;11.55;37.37;101005.41;5515555;26;20551;-81
2024/04/23 14:59:56;;;;;;;3.13;1.00;;;;;;;11.09;38.73;101004.41;5524281;25;20464;-82
2024/04/23 15:02:27;;;;;;;3.30;1.40;;;;;;;11.15;37.52;100998.19;5504280;26;20472;-80
2024/04/23 15:04:55;;;;;;;1.20;0.90;;;;;;;10.27;39.20;101004.41;5532861;25;20504;-81
2024/04/23 15:07:30;;;;;;;1.20;0.90;;;;;;;9.95;38.99;101006.66;5531217;26;20463;-80
2024/04/23 15:09:58;;;;;;;2.50;0.90;;;;;;;9.96;39.33;100996.66;5538141;25;20514;-81
2024/04/23 15:12:32;;;;;;;1.83;1.10;;;;;;;10.00;39.12;100997.94;5532265;26;20925;-81
2024/04/23 15:15:00;;;;;;;1.55;1.45;;;;;;;9.99;39.92;101002.50;5533083;25;20555;-80
2024/04/23 15:17:31;;;;;;;1.70;1.33;;;;;;;10.29;39.48;100994.22;5525922;25;20297;-79
2024/04/23 15:19:59;;;;;;;1.67;1.03;;;;;;;10.22;38.67;100993.34;5513408;26;20452;-79
2024/04/23 15:22:30;;;;;;;1.93;1.60;;;;;;;10.32;38.54;100996.53;5514689;26;20468;-80
2024/04/23 15:24:59;;;;;;;1.10;0.70;;;;;;;10.33;39.12;100990.94;5536370;25;21067;-81
2024/04/23 15:27:32;;;;;;;1.60;1.20;;;;;;;10.30;39.27;100987.81;5558557;25;20451;-80
2024/04/23 15:30:00;;;;;;;2.10;1.60;;;;;;;10.74;38.50;100980.16;5537564;26;20495;-79
2024/04/23 15:32:33;;;;;;;1.70;1.20;;;;;;;10.52;38.26;100985.84;5522451;25;20823;-82
2024/04/23 15:35:01;;;;;;;1.30;1.20;;;;;;;10.65;38.16;100978.63;5477477;26;20546;-81
2024/04/23 15:37:34;;;;;;;2.53;1.00;;;;;;;10.66;37.36;100966.75;5500188;26;20475;-81
2024/04/23 15:40:02;;;;;;;1.10;1.00;;;;;;;10.86;39.03;100972.25;5511159;26;20569;-81
2024/04/23 15:42:38;;;;;;;2.40;1.07;;;;;;;11.04;37.69;100963.56;5514785;26;20465;-81
2024/04/23 15:45:07;;;;;;;1.47;1.10;;;;;;;10.65;37.45;100969.69;5532151;26;20441;-82
2024/04/23 15:47:38;;;;;;;1.90;1.47;;;;;;;10.76;37.82;100967.22;5538044;25;21005;-82
2024/04/23 15:50:07;;;;;;;4.03;1.40;;;;;;;10.95;37.61;100959.38;5509201;26;20456;-82
2024/04/23 15:52:38;;;;;;;2.43;1.70;;;;;;;11.19;37.52;100959.66;5501295;26;20483;-81
2024/04/23 15:55:09;;;;;;;2.20;0.80;;;;;;;11.27;36.91;100948.66;5545582;25;20452;-81
2024/04/23 15:57:39;;;;;;;1.53;1.10;;;;;;;11.27;36.53;100947.81;5533350;25;20464;-82
2024/04/23 16:00:11;;;;;;;1.00;0.80;;;;;;;11.00;37.61;100946.91;5530521;25;20440;-81
2024/04/23 16:02:40;;;;;;;2.93;1.30;;;;;;;11.15;38.11;100944.03;5534556;25;20443;-80
2024/04/23 16:05:10;;;;;;;1.97;1.13;;;;;;;11.00;37.47;100929.81;5532005;26;20519;-79
2024/04/23 16:08:06;;;;;;;1.13;1.03;;;;;;;10.84;38.75;100937.25;5482336;26;20488;-81
2024/04/23 16:11:47;;;;;;;1.40;1.10;;;;;;;10.45;38.57;100931.72;5530740;26;20541;-81
2024/04/23 16:35:15;;;;;;;1.63;1.30;;;;;;;9.73;41.31;100894.19;5547772;26;20444;-81
2024/04/23 16:38:57;;;;;;;1.93;1.43;;;;;;;10.06;39.53;100901.69;5533609;25;20498;-82
2024/04/23 16:42:07;;;;;;;2.05;1.48;;;;;;;9.72;40.32;100903.34;5511689;26;20451;-82
2024/04/23 16:44:38;;;;;;;1.43;0.90;;;;;;;9.31;40.49;100905.03;5531948;26;20326;-81
2024/04/23 16:47:14;;;;;;;1.30;1.00;;;;;;;9.22;41.06;100896.25;5528765;25;20543;-79
2024/04/23 17:01:45;;;;;;;1.50;0.95;;;;;;;9.03;42.36;100889.63;5530439;26;20770;-81
2024/04/23 17:04:14;;;;;;;1.67;1.37;;;;;;;9.07;42.14;100882.81;5530161;26;20254;-80
2024/04/23 17:06:47;;;;;;;1.23;1.00;;;;;;;8.92;42.34;100890.13;5531179;25;20440;-82
2024/04/23 17:09:15;;;;;;;2.28;0.85;;;;;;;8.86;41.97;100882.78;5538811;26;20273;-80
2024/04/23 17:11:46;;;;;;;1.55;1.20;;;;;;;8.78;42.38;100877.53;5539900;26;20222;-79
2024/04/23 17:14:16;;;;;;;2.45;1.40;;;;;;;8.87;42.39;100876.38;5530980;25;20219;-80
2024/04/23 17:16:46;;;;;;;1.77;1.00;;;;;;;8.80;43.32;100880.88;5532574;25;20231;-81
2024/04/23 17:19:15;;;;;;;2.53;1.15;;;;;;;8.93;44.08;100881.00;5533152;25;20227;-81
2024/04/23 17:21:54;;;;;;;1.60;1.17;;;;;;;8.68;43.39;100879.69;5532976;26;20227;-79